• Join FlightAware (Why Join?)
  • Login
  • US Flag 
01:22AM EDT


 

Airport Tracker/Info


-or-


 

Live Flight TrackerFlight Track Log ✈ UAL395 ✈ 02-May-2013 ✈ KIAH - KLAS

Flight Track Log - Related Links

Times and Time Zones

All times are in EDT time to prevent confusion due to time zone crossing. See the UAL395 flight status page for this flight to view local times or setup timezone preferences in your user account.

Time Position Orientation Groundspeed Altitude Reporting Facility
EDT Latitude Longitude Course Direction KTS MPH feet Rate Location/Type
08:24AM 29.9531 -95.3422 276° West 180 207 900  Level Houston Center
08:25AM 29.9267 -95.4200 249° West 240 276 3,500 1,500 Climbing Houston Center
08:26AM 29.9303 -95.4408 281° West 237 273 3,700 480 Climbing Houston Center
08:26AM 29.9400 -95.4956 282° West 263 303 4,000 1,920 Climbing Houston Center
08:27AM 30.0235 -95.6911 276° West  Level FlightAware Approximate
08:27AM 29.9494 -95.5353 285° West 251 289 5,700  Level Houston Center
08:28AM 30.0343 -95.8111 276° West  Level FlightAware Approximate
08:28AM 29.9675 -95.6139 285° West 254 292 8,600  Level Houston Center
08:29AM 30.0443 -95.9311 276° West  Level FlightAware Approximate
08:29AM 29.9872 -95.7011 285° West 276 318 10,500  Level Houston Center
08:30AM 30.0122 -95.8086 285° West 346 398 12,200 2,280 Climbing Houston Center
08:31AM 30.0350 -95.9175 284° West 350 403 15,200 2,460 Climbing Houston Center
08:32AM 30.0603 -96.0250 285° West 359 413 17,300 2,040 Climbing Houston Center
08:33AM 30.0878 -96.1700 282° West 384 442 19,500 2,040 Climbing Houston Center
08:34AM 30.1069 -96.2961 280° West 398 458 21,500 1,740 Climbing Houston Center
08:35AM 30.1261 -96.4258 280° West 410 472 23,200 1,620 Climbing Houston Center
08:36AM 30.1497 -96.5614 281° West 422 486 24,900 1,560 Climbing Houston Center
08:37AM 30.1800 -96.6992 284° West 435 501 26,500 1,500 Climbing Houston Center
08:38AM 30.2122 -96.8386 285° West 442 509 28,000 2,040 Climbing Houston Center
08:39AM 30.2433 -96.9764 285° West 435 501 30,700 1,860 Climbing Houston Center
08:40AM 30.2719 -97.1083 284° West 420 483 31,900 780 Climbing Houston Center
08:41AM 30.3031 -97.2456 285° West 431 496 32,400 840 Climbing Houston Center
08:42AM 30.3331 -97.3875 284° West 445 512 33,700 780 Climbing Houston Center
08:43AM 30.3650 -97.5292 285° West 447 514 34,000 120 Climbing Houston Center
08:44AM 30.4011 -97.6936 284° West 446 513 34,000  Level Houston Center
08:45AM 30.4317 -97.8339 284° West 443 510 34,000  Level Houston Center
08:46AM 30.4619 -97.9733 284° West 442 509 34,000  Level Houston Center
08:47AM 30.4917 -98.1133 284° West 442 509 34,000  Level Houston Center
08:48AM 30.5208 -98.2525 284° West 439 505 34,000  Level Houston Center
08:49AM 30.5511 -98.3906 284° West 437 503 34,000  Level Houston Center
08:50AM 30.5783 -98.5283 283° West 435 501 34,000  Level Houston Center
08:51AM 30.6075 -98.6653 284° West 433 498 34,000  Level Houston Center
08:53AM 30.6364 -98.8017 284° West 432 497 34,000  Level Houston Center
08:54AM 30.6647 -98.9375 284° West 429 494 34,000  Level Houston Center
08:55AM 30.6919 -99.0764 283° West 436 502 34,000 -60 Level Houston Center
08:56AM 30.7217 -99.2200 284° West 438 504 33,900  Descending Houston Center
08:57AM 30.7494 -99.3578 283° West 440 506 34,000 720 Climbing Houston Center
08:58AM 30.7789 -99.4953 284° West 440 506 35,400 960 Climbing Houston Center
08:59AM 30.8061 -99.6308 283° West 436 502 36,000 240 Climbing Houston Center
09:00AM 30.8383 -99.7928 283° West 432 497 35,900 -60 Descending Houston Center
09:01AM 30.8653 -99.9294 283° West 434 499 35,900  Level Houston Center
09:02AM 30.8919 -100.0658 283° West 435 501 35,900  Level Houston Center
09:03AM 30.9203 -100.2025 284° West 431 496 36,000  Climbing Houston Center
09:04AM 30.9469 -100.3375 283° West 432 497 36,000 -60 Level Houston Center
09:05AM 30.9722 -100.4758 282° West 453 521 35,900  Descending Houston Center
09:06AM 31.0042 -100.6369 283° West 434 499 36,000  Climbing Houston Center
09:07AM 31.0289 -100.7731 282° West 446 513 35,900 -60 Descending Houston Center
09:08AM 31.0553 -100.9056 283° West 428 493 35,900  Level Houston Center
09:09AM 31.0803 -101.0419 282° West 434 499 36,000  Climbing Houston Center
09:10AM 31.1083 -101.1733 284° West 431 496 36,000  Level Houston Center
09:11AM 31.1331 -101.3081 282° West 426 490 36,000 -60 Level Houston Center
09:12AM 31.1586 -101.4483 282° West 427 491 35,900  Descending Houston Center
09:13AM 31.1833 -101.5811 282° West 422 486 36,000  Climbing Houston Center
09:14AM 31.2119 -101.7428 282° West 424 488 35,900 -60 Descending Houston Center
09:15AM 31.2358 -101.8728 282° West 416 479 35,900  Level Houston Center
09:16AM 31.2592 -102.0222 280° West 427 491 36,000  Climbing Albuquerque Center
09:17AM 31.2839 -102.1525 283° West 416 479 36,000  Level Albuquerque Center
09:18AM 31.3081 -102.2825 282° West 412 474 36,000  Level Albuquerque Center
09:19AM 31.3311 -102.4147 282° West 413 475 36,000 -60 Level Albuquerque Center
09:20AM 31.3531 -102.5442 281° West 411 473 35,900  Descending Albuquerque Center
09:21AM 31.3756 -102.6733 282° West 408 470 36,000  Climbing Albuquerque Center
09:22AM 31.3986 -102.8039 282° West 410 472 35,900  Descending Albuquerque Center
09:23AM 31.4222 -102.9361 282° West 413 475 36,000  Climbing Albuquerque Center
09:24AM 31.4450 -103.0686 281° West 416 479 35,900  Descending Albuquerque Center
09:25AM 31.4675 -103.1989 281° West 411 473 36,000  Climbing Albuquerque Center
09:26AM 31.4883 -103.3311 281° West 412 474 36,000 -60 Level Albuquerque Center
09:27AM 31.5144 -103.4897 281° West 414 476 35,900 -60 Descending Albuquerque Center
09:28AM 31.5392 -103.6236 282° West 418 481 35,900  Level Albuquerque Center
09:29AM 31.5594 -103.7528 280° West 409 471 35,900  Level Albuquerque Center
09:30AM 31.5767 -103.8656 280° West 410 472 36,000  Climbing Albuquerque Center
09:31AM 31.6039 -104.0233 281° West 413 475 36,000  Level Albuquerque Center
09:32AM 31.6261 -104.1550 281° West 413 475 36,000  Level Albuquerque Center
09:33AM 31.6472 -104.2861 281° West 412 474 36,000  Level Albuquerque Center
09:34AM 31.6694 -104.4175 281° West 412 474 36,000 -60 Level Albuquerque Center
09:36AM 31.6894 -104.5469 280° West 407 468 35,900 -60 Descending Albuquerque Center
09:37AM 31.7108 -104.6783 281° West 410 472 35,900  Level Albuquerque Center
09:38AM 31.7314 -104.8089 281° West 410 472 36,000  Climbing Albuquerque Center
09:39AM 31.7519 -104.9389 281° West 408 470 36,000 -60 Level Albuquerque Center
09:40AM 31.7719 -105.0683 280° West 406 467 35,900 -60 Descending Albuquerque Center
09:41AM 31.7964 -105.2239 281° West 405 466 35,900  Level Albuquerque Center
09:42AM 31.8161 -105.3544 280° West 407 468 35,900  Level Albuquerque Center
09:43AM 31.8361 -105.4819 280° West 401 461 36,000  Climbing Albuquerque Center
09:44AM 31.8550 -105.6108 280° West 402 463 36,000  Level Albuquerque Center
09:45AM 31.8744 -105.7394 280° West 401 461 36,000  Level Albuquerque Center
09:46AM 31.8931 -105.8683 280° West 401 461 36,000 -60 Level Albuquerque Center
09:47AM 31.9150 -106.0144 280° West 401 461 35,900 -60 Descending Albuquerque Center
09:48AM 31.9339 -106.1450 280° West 404 465 35,900  Level Albuquerque Center
09:49AM 31.9544 -106.2731 281° West 400 460 36,000  Climbing Albuquerque Center
09:50AM 31.9844 -106.4000 286° West 403 464 36,000  Level Albuquerque Center
09:51AM 32.0158 -106.5253 286° West 399 459 36,000  Level Albuquerque Center
09:52AM 32.0472 -106.6511 286° West 400 460 36,000  Level Albuquerque Center
09:53AM 32.0778 -106.7764 286° West 398 458 36,000  Level Albuquerque Center
09:54AM 32.1092 -106.9019 286° West 398 458 36,000  Level Albuquerque Center
09:55AM 32.1397 -107.0289 286° West 399 459 36,000  Level Albuquerque Center
09:56AM 32.1914 -107.1667 294° West 390 449 36,000  Level Albuquerque Center
09:57AM 32.2464 -107.2814 300° West 402 463 36,000  Level Albuquerque Center
09:58AM 32.3036 -107.3919 302° West 398 458 36,000  Level Albuquerque Center
09:59AM 32.3614 -107.5019 302° West 398 458 36,000  Level Albuquerque Center
10:00AM 32.4128 -107.6000 302° West 395 455 36,000 -60 Level Albuquerque Center
10:01AM 32.4789 -107.7369 300° West 397 457 35,900  Descending Albuquerque Center
10:02AM 32.5281 -107.8339 301° West 394 453 36,000  Climbing Albuquerque Center
10:03AM 32.5833 -107.9439 301° West 393 452 36,000  Level Albuquerque Center
10:04AM 32.6497 -108.0767 301° West 393 452 36,000  Level Albuquerque Center
10:05AM 32.7044 -108.1864 301° West 391 450 36,000  Level Albuquerque Center
10:06AM 32.7583 -108.2969 300° West 391 450 36,000  Level Albuquerque Center
10:07AM 32.8125 -108.4058 301° West 388 447 36,000  Level Albuquerque Center
10:08AM 32.8667 -108.5150 301° West 387 445 36,000  Level Albuquerque Center
10:09AM 32.9206 -108.6231 301° West 385 443 36,000  Level Albuquerque Center
10:10AM 32.9847 -108.7536 300° West 386 444 36,000  Level Albuquerque Center
10:11AM 33.0389 -108.8672 300° West 389 448 36,000  Level Albuquerque Center
10:12AM 33.0919 -108.9797 299° West 388 447 36,000 -60 Level Albuquerque Center
10:13AM 33.1467 -109.0903 301° West 388 447 35,900  Descending Albuquerque Center
10:14AM 33.2050 -109.2114 300° West 386 444 36,000  Climbing Albuquerque Center
10:15AM 33.2572 -109.3214 300° West 385 443 36,000  Level Albuquerque Center
10:16AM 33.3103 -109.4314 300° West 384 442 36,000  Level Albuquerque Center
10:17AM 33.3631 -109.5419 300° West 386 444 36,000  Level Albuquerque Center
10:18AM 33.4147 -109.6528 299° West 385 443 36,000  Level Albuquerque Center
10:19AM 33.4678 -109.7642 300° West 387 445 36,000  Level Albuquerque Center
10:20AM 33.5308 -109.8972 300° West 386 444 36,000  Level Albuquerque Center
10:21AM 33.5833 -110.0083 300° West 387 445 36,000  Level Albuquerque Center
10:23AM 33.6358 -110.1242 299° West 395 455 36,000  Level Albuquerque Center
10:24AM 33.6878 -110.2361 299° West 391 450 36,000  Level Albuquerque Center
10:25AM 33.7414 -110.3492 300° West 392 451 36,000  Level Albuquerque Center
10:26AM 33.8003 -110.4772 299° West 391 450 36,000  Level Albuquerque Center
10:27AM 33.8531 -110.5908 299° West 390 449 36,000  Level Albuquerque Center
10:28AM 33.9053 -110.7058 299° West 393 452 36,000  Level Albuquerque Center
10:29AM 33.9586 -110.8203 299° West 393 452 36,000  Level Albuquerque Center
10:30AM 34.0111 -110.9378 298° West 397 457 36,000  Level Albuquerque Center
10:31AM 34.0753 -111.0775 299° West 399 459 36,000  Level Albuquerque Center
10:32AM 34.1281 -111.1950 299° West 400 460 36,000  Level Albuquerque Center
10:33AM 34.1808 -111.3119 299° West 400 460 36,000  Level Albuquerque Center
10:34AM 34.2339 -111.4283 299° West 399 459 36,000  Level Albuquerque Center
10:35AM 34.2861 -111.5447 299° West 398 458 36,000  Level Albuquerque Center
10:36AM 34.3497 -111.6850 299° West 401 461 36,000  Level Albuquerque Center
10:37AM 34.4025 -111.8028 299° West 401 461 36,000  Level Albuquerque Center
10:38AM 34.4550 -111.9214 298° West 403 464 36,000  Level Albuquerque Center
10:39AM 34.5078 -112.0414 298° West 405 466 36,000  Level Albuquerque Center
10:40AM 34.5600 -112.1600 298° West 403 464 36,000  Level Albuquerque Center
10:41AM 34.6231 -112.3033 298° West 403 464 36,000  Level Albuquerque Center
10:42AM 34.6775 -112.4256 298° West 407 468 36,000  Level Albuquerque Center
10:43AM 34.7289 -112.5481 297° West 408 470 36,000  Level Albuquerque Center
10:44AM 34.7783 -112.6733 296° West 409 471 36,000 -420 Level Albuquerque Center
10:45AM 34.8267 -112.7992 295° West 409 471 35,200 -1,440 Descending Albuquerque Center
10:46AM 34.8742 -112.9239 295° West 408 470 33,100 -2,040 Descending Albuquerque Center
10:47AM 34.9211 -113.0478 295° West 403 464 31,000 -1,500 Descending Albuquerque Center
10:48AM 34.9778 -113.1933 295° West 396 456 30,000 -540 Descending Albuquerque Center
10:49AM 35.0275 -113.3214 295° West 409 471 30,000  Level Albuquerque Center
10:50AM 35.0761 -113.4503 295° West 416 479 30,000 -360 Level Albuquerque Center
10:51AM 35.0967 -113.5028 296° West 419 482 29,500 -1,980 Descending Los Angeles Center
10:52AM 35.1542 -113.6239 300° West 412 474 27,100 -2,340 Descending Los Angeles Center
10:53AM 35.2311 -113.7214 314° West 402 463 24,700 -2,460 Descending Los Angeles Center
10:54AM 35.3200 -113.8375 313° West 391 450 22,100 -2,340 Descending Los Angeles Center
10:55AM 35.3961 -113.9356 314° West 376 433 19,900 -2,160 Descending Los Angeles Center
10:56AM 35.4619 -114.0203 314° West 366 421 17,700 -1,920 Descending Los Angeles Center
10:57AM 35.5303 -114.1114 313° West 364 419 16,000 -1,800 Descending Los Angeles Center
10:58AM 35.5992 -114.1986 314° West 358 412 14,000 -2,100 Descending Los Angeles Center
10:58AM 35.6381 -114.2469 315° West 354 407 13,000 -1,800 Descending Los Angeles Center
10:59AM 35.6675 -114.2883 311° West 345 397 12,200 -660 Descending Los Angeles Center
11:00AM 35.7256 -114.3653 313° West 319 367 12,000 -120 Descending Los Angeles Center
11:01AM 35.7419 -114.4664 281° West 306 352 12,000 -420 Level Los Angeles Center
11:02AM 35.7592 -114.5894 280° West 304 350 11,200 -1,020 Descending Los Angeles Center
11:03AM 35.7583 -114.6900 269° West 305 351 10,000 -600 Descending Los Angeles Center
11:04AM 35.7286 -114.7883 250° West 305 351 10,000  Level Los Angeles Center
11:05AM 35.7017 -114.8883 252° West 307 353 10,000 -60 Level Los Angeles Center
11:06AM 35.6758 -114.9872 252° West 305 351 9,900 -480 Descending Los Angeles Center
11:07AM 35.6722 -115.0906 268° West 303 349 9,000 -480 Descending Los Angeles Center
11:08AM 35.6683 -115.2092 268° West 300 345 9,000 -60 Level Los Angeles Center
11:09AM 35.7097 -115.2861 304° West 284 327 8,900 -720 Descending Los Angeles Center
11:10AM 35.7739 -115.2886 358° North 247 284 7,600 -1,020 Descending Los Angeles Center
11:11AM 35.8433 -115.2897 359° North 256 295 7,000 -600 Descending Los Angeles Center
11:12AM 35.9039 -115.2700 15° North 213 245 6,400 -900 Descending Los Angeles Center
11:13AM 35.9494 -115.2417 27° Northeast 171 197 5,200 -1,140 Descending Los Angeles Center
11:14AM 35.9922 -115.2197 23° Northeast 167 192 4,200 -1,020 Descending Los Angeles Center